Time;durP1;ratioP1;P1;durP2;ratioP2;P2;SDS_P1;SDS_P2;PMS_P1;PMS_P2;Temp;Humidity;BMP_temperature;BMP_pressure;BME280_temperature;BME280_humidity;BME280_pressure;Samples;Min_cycle;Max_cycle;Signal;HPM_P1;HPM_P2
2022/12/27 00:00:43;;;;;;;10.27;3.15;;;4.90;99.90;;;;;;5054932;28;20035;-62
2022/12/27 00:03:08;;;;;;;10.10;3.50;;;5.00;99.90;;;;;;5059117;28;20046;-61
2022/12/27 00:05:34;;;;;;;7.97;2.67;;;5.00;99.90;;;;;;5066225;28;20028;-61
2022/12/27 00:07:59;;;;;;;13.35;2.90;;;5.00;99.90;;;;;;5065405;28;20045;-62
2022/12/27 00:10:25;;;;;;;11.23;3.25;;;5.00;99.90;;;;;;5059279;28;20090;-61
2022/12/27 00:12:52;;;;;;;12.07;3.42;;;5.10;99.90;;;;;;5057868;28;20050;-61
2022/12/27 00:15:18;;;;;;;14.75;3.75;;;5.00;99.90;;;;;;5058785;28;20465;-62
2022/12/27 00:17:43;;;;;;;12.63;3.38;;;5.00;99.90;;;;;;5064888;28;20044;-62
2022/12/27 00:20:09;;;;;;;11.00;3.13;;;5.10;99.90;;;;;;5061668;28;20255;-62
2022/12/27 00:22:35;;;;;;;10.52;3.30;;;5.00;99.90;;;;;;5065163;28;20033;-62
2022/12/27 00:25:00;;;;;;;12.57;3.30;;;5.20;99.90;;;;;;5060788;28;20037;-62
2022/12/27 00:27:26;;;;;;;9.43;3.17;;;5.00;99.90;;;;;;5064937;28;20613;-62
2022/12/27 00:29:52;;;;;;;12.32;3.40;;;5.00;99.90;;;;;;5054900;28;20029;-61
2022/12/27 00:32:17;;;;;;;10.90;3.33;;;5.10;99.90;;;;;;5059580;28;20588;-61
2022/12/27 00:34:43;;;;;;;9.63;3.42;;;4.90;99.90;;;;;;5059028;28;20032;-61
2022/12/27 00:37:08;;;;;;;11.10;2.92;;;4.80;99.90;;;;;;5050631;28;20067;-62
2022/12/27 00:39:34;;;;;;;11.27;3.15;;;4.80;99.90;;;;;;5061859;28;20040;-62
2022/12/27 00:42:00;;;;;;;10.50;3.42;;;4.80;99.90;;;;;;5065217;28;20433;-62
2022/12/27 00:44:25;;;;;;;10.00;3.08;;;4.90;99.90;;;;;;5054803;28;20029;-62
2022/12/27 00:46:51;;;;;;;10.32;3.20;;;4.90;99.90;;;;;;5063113;28;20513;-62
2022/12/27 00:49:16;;;;;;;9.93;2.97;;;5.00;99.90;;;;;;5058744;28;20056;-62
2022/12/27 00:51:42;;;;;;;8.70;2.67;;;5.00;99.90;;;;;;5058493;28;20127;-61
2022/12/27 00:54:08;;;;;;;6.07;3.05;;;5.10;99.90;;;;;;5055278;28;20189;-62
2022/12/27 00:56:33;;;;;;;12.68;3.33;;;5.00;99.90;;;;;;5054163;28;20032;-62
2022/12/27 00:59:01;;;;;;;9.75;3.30;;;5.00;99.90;;;;;;5055309;28;20025;-61
2022/12/27 01:01:29;;;;;;;9.13;3.20;;;4.90;99.90;;;;;;5054405;28;20049;-61
2022/12/27 01:03:56;;;;;;;9.65;2.55;;;4.90;99.90;;;;;;5052578;28;20032;-61
2022/12/27 01:06:27;;;;;;;16.05;3.58;;;5.00;99.90;;;;;;5054502;28;20040;-61
2022/12/27 01:08:53;;;;;;;11.63;3.15;;;4.80;99.90;;;;;;5056868;28;20036;-62
2022/12/27 01:11:19;;;;;;;10.45;3.20;;;4.90;99.90;;;;;;5054535;28;20045;-61
2022/12/27 01:13:45;;;;;;;11.65;3.00;;;5.00;99.90;;;;;;5061799;28;20032;-62
2022/12/27 01:16:13;;;;;;;7.88;2.85;;;4.90;99.90;;;;;;5062821;28;20447;-63
2022/12/27 01:18:39;;;;;;;9.60;2.85;;;5.00;99.90;;;;;;5057380;28;20044;-61
2022/12/27 01:21:07;;;;;;;11.30;3.25;;;5.00;99.90;;;;;;5059620;28;20043;-62
2022/12/27 01:23:32;;;;;;;13.60;3.45;;;5.00;99.90;;;;;;5055410;28;20043;-61
2022/12/27 01:26:00;;;;;;;11.18;3.10;;;5.00;99.90;;;;;;5056220;28;20029;-62
2022/12/27 01:28:26;;;;;;;8.32;2.65;;;4.90;99.90;;;;;;5057121;28;20059;-62
2022/12/27 01:30:51;;;;;;;11.23;3.05;;;4.80;99.90;;;;;;5065971;28;20456;-62
2022/12/27 01:33:17;;;;;;;9.75;2.90;;;4.90;99.90;;;;;;5066153;28;20033;-61
2022/12/27 01:35:42;;;;;;;10.35;3.00;;;4.80;99.90;;;;;;5069894;28;20034;-61
2022/12/27 01:38:08;;;;;;;10.23;2.67;;;4.80;99.90;;;;;;5057709;28;20028;-62
2022/12/27 01:40:35;;;;;;;10.80;3.00;;;4.90;99.90;;;;;;5061393;28;20036;-62
2022/12/27 01:43:01;;;;;;;11.75;3.47;;;4.90;99.90;;;;;;5064753;28;20037;-62
2022/12/27 01:45:30;;;;;;;11.60;3.55;;;4.90;99.90;;;;;;5058421;28;20041;-61
2022/12/27 01:48:13;;;;;;;8.05;2.65;;;4.90;99.90;;;;;;5054994;28;20044;-62
2022/12/27 01:50:44;;;;;;;9.00;3.40;;;4.90;99.90;;;;;;5053068;28;20039;-63
2022/12/27 01:53:18;;;;;;;8.82;2.75;;;4.90;99.90;;;;;;5054790;28;20083;-63
2022/12/27 01:55:49;;;;;;;9.15;2.72;;;4.90;99.90;;;;;;5060598;28;21012;-62
2022/12/27 01:58:41;;;;;;;10.45;3.30;;;4.90;99.90;;;;;;5054595;28;20033;-62
2022/12/27 02:01:13;;;;;;;11.13;3.10;;;4.80;99.90;;;;;;5046190;28;20626;-61
2022/12/27 02:03:54;;;;;;;12.35;3.50;;;4.90;99.90;;;;;;5050614;28;20712;-61
2022/12/27 02:06:22;;;;;;;12.60;3.53;;;5.00;99.90;;;;;;5060790;28;20033;-61
2022/12/27 02:08:57;;;;;;;13.77;3.17;;;4.90;99.90;;;;;;5062130;28;20047;-63
2022/12/27 02:14:14;;;;;;;11.57;3.00;;;4.80;99.90;;;;;;5060940;28;20411;-62
2022/12/27 02:16:40;;;;;;;9.57;2.90;;;4.90;99.90;;;;;;5056190;28;20119;-62
2022/12/27 02:19:31;;;;;;;9.60;2.83;;;4.90;99.90;;;;;;5060189;28;20135;-62
2022/12/27 02:22:14;;;;;;;11.80;3.22;;;4.90;99.90;;;;;;5061858;28;20641;-61
2022/12/27 02:24:51;;;;;;;14.55;2.95;;;4.80;99.90;;;;;;5060360;28;20127;-62
2022/12/27 02:28:04;;;;;;;14.23;3.22;;;4.80;99.90;;;;;;5064327;28;20040;-62
2022/12/27 02:30:32;;;;;;;9.45;2.97;;;4.80;99.90;;;;;;5012935;28;20037;-61
2022/12/27 02:33:12;;;;;;;10.27;2.63;;;4.90;99.90;;;;;;5057946;28;20400;-61
2022/12/27 02:35:43;;;;;;;6.78;2.60;;;4.90;99.90;;;;;;5050345;28;20041;-62
2022/12/27 02:38:23;;;;;;;13.35;2.78;;;4.90;99.90;;;;;;5064954;28;20384;-61
2022/12/27 02:55:30;;;;;;;8.82;2.83;;;4.90;99.90;;;;;;5060182;28;20118;-61
2022/12/27 02:58:17;;;;;;;9.95;2.92;;;5.00;99.90;;;;;;5068647;28;20115;-62
2022/12/27 03:04:08;;;;;;;7.82;2.97;;;5.00;99.90;;;;;;5060551;28;20043;-62
2022/12/27 03:07:02;;;;;;;13.50;3.03;;;4.90;99.90;;;;;;5055746;28;20139;-62
2022/12/27 03:15:56;;;;;;;11.85;2.90;;;5.00;99.90;;;;;;5063848;28;20043;-61
2022/12/27 03:18:44;;;;;;;14.77;3.28;;;5.00;99.90;;;;;;5059438;28;20045;-62
2022/12/27 03:26:47;;;;;;;4.88;2.30;;;5.10;99.90;;;;;;5058887;28;20043;-61
2022/12/27 03:34:55;;;;;;;7.93;2.75;;;4.90;99.90;;;;;;5062888;28;20401;-61
2022/12/27 03:40:40;;;;;;;11.40;2.70;;;4.90;99.90;;;;;;5061005;28;20093;-62
2022/12/27 03:43:12;;;;;;;8.98;2.60;;;4.90;99.90;;;;;;5065360;28;20142;-61
2022/12/27 03:49:14;;;;;;;11.57;2.55;;;5.00;99.90;;;;;;5062580;28;20071;-62
2022/12/27 03:52:10;;;;;;;6.32;2.92;;;5.10;99.90;;;;;;5063222;28;20593;-61
2022/12/27 03:54:39;;;;;;;10.80;2.70;;;5.00;99.90;;;;;;5062965;28;20032;-61
2022/12/27 03:57:12;;;;;;;9.73;2.83;;;5.00;99.90;;;;;;5066444;28;20491;-61
2022/12/27 03:59:38;;;;;;;10.10;2.58;;;5.00;99.90;;;;;;5062490;28;20507;-61
2022/12/27 04:02:04;;;;;;;11.10;3.28;;;4.90;99.90;;;;;;5062785;28;20474;-61
2022/12/27 04:04:30;;;;;;;12.70;3.60;;;5.00;99.90;;;;;;5075133;28;20544;-62
2022/12/27 04:06:55;;;;;;;12.32;3.00;;;5.00;99.90;;;;;;5054767;28;20147;-61
2022/12/27 04:36:44;;;;;;;10.93;3.08;;;5.10;99.90;;;;;;5056757;28;20054;-60
2022/12/27 04:39:10;;;;;;;10.60;2.88;;;5.00;99.90;;;;;;5061557;28;20478;-61
2022/12/27 04:55:26;;;;;;;17.38;3.53;;;5.10;99.90;;;;;;5055149;28;20085;-61
2022/12/27 04:57:53;;;;;;;11.57;3.13;;;5.20;99.90;;;;;;5055649;28;20036;-60
2022/12/27 05:03:14;;;;;;;11.10;2.90;;;5.20;99.90;;;;;;5065506;28;20036;-60
2022/12/27 05:05:41;;;;;;;9.57;2.97;;;5.20;99.90;;;;;;5050532;28;20033;-60
2022/12/27 05:16:20;;;;;;;10.25;2.75;;;5.30;99.90;;;;;;5052530;28;20040;-61
2022/12/27 05:18:46;;;;;;;13.88;3.20;;;5.30;99.90;;;;;;5066103;28;20032;-61
2022/12/27 05:21:11;;;;;;;11.20;2.80;;;5.20;99.90;;;;;;5058340;28;20112;-60
2022/12/27 05:26:25;;;;;;;13.25;3.42;;;5.30;99.90;;;;;;5056365;28;20137;-60
2022/12/27 05:28:53;;;;;;;13.00;3.05;;;5.20;99.90;;;;;;5065673;28;20604;-59
2022/12/27 05:31:20;;;;;;;12.95;2.67;;;5.20;99.90;;;;;;5057372;28;20047;-61
2022/12/27 05:33:46;;;;;;;10.98;3.28;;;5.30;99.90;;;;;;5062929;28;20120;-60
2022/12/27 05:36:12;;;;;;;13.23;3.20;;;5.20;99.90;;;;;;5057195;28;20093;-60
2022/12/27 05:38:38;;;;;;;14.38;3.33;;;5.20;99.90;;;;;;5060305;28;20687;-59
2022/12/27 05:41:04;;;;;;;14.88;3.20;;;5.10;99.90;;;;;;5063153;28;20067;-59
2022/12/27 05:43:30;;;;;;;9.75;3.10;;;5.10;99.90;;;;;;5056937;28;20028;-60
2022/12/27 05:46:03;;;;;;;11.80;3.08;;;5.20;99.90;;;;;;5060522;28;20036;-60
2022/12/27 05:48:29;;;;;;;8.32;3.03;;;5.20;99.90;;;;;;5054907;28;20040;-60
2022/12/27 05:50:54;;;;;;;12.73;3.60;;;5.20;99.90;;;;;;5060769;28;20492;-61
2022/12/27 05:53:20;;;;;;;7.43;3.05;;;5.20;99.90;;;;;;5063697;28;20051;-60
2022/12/27 05:55:53;;;;;;;10.68;3.33;;;5.20;99.90;;;;;;5054262;28;20036;-60
2022/12/27 05:58:19;;;;;;;14.70;3.00;;;5.20;99.90;;;;;;5054300;28;20037;-60
2022/12/27 06:00:44;;;;;;;9.98;2.90;;;5.20;99.90;;;;;;5067492;28;20036;-60
2022/12/27 06:03:10;;;;;;;8.98;3.05;;;5.20;99.90;;;;;;5057369;28;20112;-60
2022/12/27 06:05:35;;;;;;;11.18;2.80;;;5.30;99.90;;;;;;5068409;28;20040;-60
2022/12/27 06:08:01;;;;;;;8.18;2.65;;;5.10;99.90;;;;;;5065542;28;20174;-60
2022/12/27 06:10:27;;;;;;;12.15;3.03;;;5.10;99.90;;;;;;5053306;28;20079;-59
2022/12/27 06:12:52;;;;;;;11.77;3.78;;;5.10;99.90;;;;;;5057133;28;20032;-60
2022/12/27 06:15:18;;;;;;;14.63;3.35;;;5.10;99.90;;;;;;5060956;28;20029;-60
2022/12/27 06:17:43;;;;;;;14.50;3.15;;;5.10;99.90;;;;;;5068674;28;20064;-60
2022/12/27 06:20:09;;;;;;;9.75;3.72;;;5.20;99.90;;;;;;5057016;28;20029;-60
2022/12/27 06:22:35;;;;;;;8.55;2.70;;;5.20;99.90;;;;;;5061408;28;20040;-60
2022/12/27 06:25:01;;;;;;;12.32;3.03;;;5.20;99.90;;;;;;5055427;28;20482;-60
2022/12/27 06:27:26;;;;;;;8.50;3.25;;;5.20;99.90;;;;;;5061248;28;20040;-60
2022/12/27 06:29:52;;;;;;;15.82;3.38;;;5.20;99.90;;;;;;5073432;28;20145;-60
2022/12/27 06:32:17;;;;;;;10.38;3.05;;;5.10;99.90;;;;;;5060147;28;20444;-61
2022/12/27 06:34:44;;;;;;;11.38;3.30;;;5.10;99.90;;;;;;5069246;28;20027;-60
2022/12/27 06:37:11;;;;;;;11.30;3.22;;;5.10;99.90;;;;;;5070172;28;20033;-60
2022/12/27 06:39:36;;;;;;;14.27;3.10;;;5.20;99.90;;;;;;5061867;28;20036;-60
2022/12/27 06:42:02;;;;;;;11.95;3.03;;;5.20;99.90;;;;;;5067266;28;20487;-61
2022/12/27 06:44:28;;;;;;;11.25;3.28;;;5.20;99.90;;;;;;5064368;28;20532;-60
2022/12/27 06:46:53;;;;;;;9.02;2.85;;;5.10;99.90;;;;;;5063774;28;20485;-60
2022/12/27 06:49:19;;;;;;;11.63;3.17;;;5.00;99.90;;;;;;5059563;28;20450;-60
2022/12/27 06:51:44;;;;;;;12.82;3.50;;;5.10;99.90;;;;;;5063557;28;20491;-60
2022/12/27 06:54:10;;;;;;;12.75;3.20;;;5.20;99.90;;;;;;5061350;28;20045;-60
2022/12/27 06:56:35;;;;;;;10.80;3.70;;;5.10;99.90;;;;;;5066171;28;20369;-61
2022/12/27 06:59:01;;;;;;;8.68;3.00;;;5.00;99.90;;;;;;5061104;28;20551;-60
2022/12/27 07:01:27;;;;;;;14.25;3.65;;;5.10;99.90;;;;;;5063554;28;20028;-61
2022/12/27 07:03:58;;;;;;;11.32;3.10;;;5.00;99.90;;;;;;5061408;28;20099;-61
2022/12/27 07:06:25;;;;;;;15.15;3.28;;;5.00;99.90;;;;;;5062878;28;20032;-60
2022/12/27 07:08:51;;;;;;;10.82;3.20;;;5.00;99.90;;;;;;5060847;28;20041;-60
2022/12/27 07:11:18;;;;;;;10.80;3.00;;;5.10;99.90;;;;;;5057785;28;20033;-60
2022/12/27 07:13:49;;;;;;;9.10;3.25;;;5.00;99.90;;;;;;5062337;28;20037;-60
2022/12/27 07:16:17;;;;;;;14.18;3.53;;;4.90;99.90;;;;;;5061451;28;20047;-60
2022/12/27 07:18:43;;;;;;;11.18;3.38;;;5.00;99.90;;;;;;5064070;28;20099;-60
2022/12/27 07:21:11;;;;;;;10.93;3.10;;;5.00;99.90;;;;;;5056198;28;20025;-60
2022/12/27 07:23:37;;;;;;;11.27;3.03;;;4.90;99.90;;;;;;5056259;28;20036;-60
2022/12/27 07:26:05;;;;;;;13.88;3.15;;;4.90;99.90;;;;;;5058116;28;20047;-60
2022/12/27 07:28:30;;;;;;;13.25;3.72;;;5.00;99.90;;;;;;5063808;28;20036;-60
2022/12/27 07:30:57;;;;;;;12.07;3.42;;;5.10;99.90;;;;;;5070022;28;20090;-60
2022/12/27 07:33:23;;;;;;;12.05;3.80;;;5.10;99.90;;;;;;5066994;28;20831;-60
2022/12/27 07:35:48;;;;;;;12.27;3.97;;;5.20;99.90;;;;;;5053114;28;20055;-60
2022/12/27 07:38:14;;;;;;;8.82;3.40;;;5.00;99.90;;;;;;5055562;28;20032;-61
2022/12/27 07:40:39;;;;;;;11.02;3.40;;;5.00;99.90;;;;;;5060630;28;20511;-61
2022/12/27 07:43:05;;;;;;;13.32;3.85;;;5.00;99.90;;;;;;5059715;28;20442;-61
2022/12/27 07:45:31;;;;;;;12.48;3.83;;;4.90;99.90;;;;;;5055266;28;20537;-60
2022/12/27 07:47:56;;;;;;;14.82;4.40;;;5.00;99.90;;;;;;5058593;28;20064;-61
2022/12/27 07:50:22;;;;;;;11.75;3.55;;;4.90;99.90;;;;;;5059531;28;20061;-61
2022/12/27 07:52:47;;;;;;;11.40;3.67;;;5.00;99.90;;;;;;5069739;28;20033;-62
2022/12/27 07:55:13;;;;;;;11.25;3.90;;;5.10;99.90;;;;;;5057157;28;20124;-61
2022/12/27 07:57:39;;;;;;;16.45;4.28;;;5.10;99.90;;;;;;5055473;28;20056;-61
2022/12/27 08:00:05;;;;;;;9.35;3.25;;;5.20;99.90;;;;;;5059321;28;20392;-60
2022/12/27 08:02:30;;;;;;;17.02;3.33;;;5.20;99.90;;;;;;5060452;28;20044;-60
2022/12/27 08:04:56;;;;;;;21.15;4.15;;;5.10;99.90;;;;;;5061203;28;20057;-60
2022/12/27 08:07:23;;;;;;;15.90;3.28;;;5.10;99.90;;;;;;5051842;28;20037;-61
2022/12/27 08:09:49;;;;;;;12.45;3.67;;;5.10;99.90;;;;;;5054174;28;20123;-61
2022/12/27 08:12:14;;;;;;;10.30;3.50;;;5.10;99.90;;;;;;5057615;28;20140;-61
2022/12/27 08:14:40;;;;;;;9.02;3.40;;;5.10;99.90;;;;;;5062202;28;20037;-60
2022/12/27 08:17:22;;;;;;;11.93;3.30;;;5.00;99.90;;;;;;5022602;28;1033762;-60
2022/12/27 08:19:50;;;;;;;14.02;3.28;;;4.90;99.90;;;;;;5057945;28;20498;-60
2022/12/27 08:22:16;;;;;;;10.68;2.80;;;4.90;99.90;;;;;;5065772;28;20457;-61
2022/12/27 08:24:42;;;;;;;8.77;3.10;;;5.00;99.90;;;;;;5069964;28;20107;-60
2022/12/27 08:27:08;;;;;;;12.85;3.70;;;5.10;99.90;;;;;;5068615;28;20119;-60
2022/12/27 08:29:34;;;;;;;15.55;3.88;;;5.20;99.90;;;;;;5066328;28;20033;-62
2022/12/27 08:32:00;;;;;;;11.65;3.95;;;5.20;99.90;;;;;;5067254;28;20092;-60
2022/12/27 08:34:25;;;;;;;13.18;3.75;;;5.20;99.90;;;;;;5058191;28;20119;-59
2022/12/27 08:36:51;;;;;;;11.02;4.03;;;5.10;99.90;;;;;;5056030;28;20436;-59
2022/12/27 08:39:18;;;;;;;14.50;4.53;;;5.10;99.90;;;;;;5061919;28;20500;-59
2022/12/27 08:41:44;;;;;;;11.95;4.13;;;5.20;99.90;;;;;;5059211;28;20044;-60
2022/12/27 08:44:10;;;;;;;12.13;4.35;;;5.10;99.90;;;;;;5058943;28;20059;-60
2022/12/27 08:46:36;;;;;;;18.20;4.88;;;5.10;99.90;;;;;;5059879;28;20480;-60
2022/12/27 08:49:02;;;;;;;10.55;4.00;;;5.10;99.90;;;;;;5058258;28;20051;-61
2022/12/27 08:51:28;;;;;;;12.50;3.92;;;5.10;99.90;;;;;;5055475;28;20924;-61
2022/12/27 08:53:53;;;;;;;15.52;3.90;;;5.10;99.90;;;;;;5057368;28;20032;-60
2022/12/27 08:56:19;;;;;;;12.82;4.15;;;5.20;99.90;;;;;;5062412;28;20400;-60
2022/12/27 08:58:47;;;;;;;14.00;3.83;;;5.20;99.90;;;;;;5061791;28;20028;-61
2022/12/27 09:01:13;;;;;;;8.48;3.60;;;5.30;99.90;;;;;;5059873;28;20607;-60
2022/12/27 09:03:39;;;;;;;13.35;3.53;;;5.40;99.90;;;;;;5058326;28;20032;-60
2022/12/27 09:06:16;;;;;;;13.02;3.63;;;5.50;99.90;;;;;;5059013;28;20041;-61
2022/12/27 09:08:44;;;;;;;10.38;3.58;;;5.50;99.90;;;;;;5055557;28;20517;-61
2022/12/27 09:11:12;;;;;;;10.48;3.50;;;5.60;99.90;;;;;;5058413;28;20040;-62
2022/12/27 09:13:38;;;;;;;16.23;3.65;;;5.60;99.90;;;;;;5066692;28;20133;-60
2022/12/27 09:16:09;;;;;;;15.77;3.80;;;5.60;99.90;;;;;;5056430;28;20512;-60
2022/12/27 09:18:39;;;;;;;9.60;3.20;;;5.60;99.90;;;;;;5066500;28;20252;-61
2022/12/27 09:21:07;;;;;;;14.05;3.58;;;5.50;99.90;;;;;;5075002;28;20037;-61
2022/12/27 09:23:33;;;;;;;11.57;3.83;;;5.60;99.90;;;;;;5064774;28;20028;-60
2022/12/27 09:26:03;;;;;;;10.57;2.95;;;5.50;99.90;;;;;;5055293;28;20370;-61
2022/12/27 09:28:29;;;;;;;13.63;3.40;;;5.70;99.90;;;;;;5054981;28;20368;-62
2022/12/27 09:30:54;;;;;;;9.98;3.25;;;5.80;99.90;;;;;;5060548;28;20029;-60
2022/12/27 09:33:20;;;;;;;12.57;3.67;;;5.80;99.90;;;;;;5058068;28;20029;-60
2022/12/27 09:35:45;;;;;;;15.27;3.80;;;5.80;99.90;;;;;;5059477;28;20036;-61
2022/12/27 09:38:11;;;;;;;11.52;3.60;;;5.70;99.90;;;;;;5059507;28;20056;-60
2022/12/27 09:40:37;;;;;;;8.75;3.53;;;5.80;99.90;;;;;;5057803;28;20037;-62
2022/12/27 09:43:08;;;;;;;10.18;3.40;;;5.90;99.90;;;;;;5056287;28;20522;-62
2022/12/27 09:45:42;;;;;;;11.43;3.40;;;5.90;99.90;;;;;;5059441;28;20361;-62
2022/12/27 09:48:24;;;;;;;18.20;3.88;;;5.90;99.90;;;;;;5054244;28;20056;-61
2022/12/27 09:50:56;;;;;;;8.33;2.93;;;6.00;99.90;;;;;;5055454;28;20432;-62
2022/12/27 09:53:46;;;;;;;13.27;3.55;;;6.00;99.90;;;;;;5056659;28;20044;-61
2022/12/27 09:56:18;;;;;;;15.40;3.80;;;6.00;99.90;;;;;;5046512;28;20029;-60
2022/12/27 09:58:53;;;;;;;12.13;3.30;;;6.20;99.90;;;;;;5052818;28;20484;-61
2022/12/27 10:01:33;;;;;;;13.13;3.67;;;6.20;99.90;;;;;;5062689;28;20033;-60
2022/12/27 10:04:00;;;;;;;16.10;3.58;;;6.20;99.90;;;;;;5065128;28;20029;-61
2022/12/27 10:06:54;;;;;;;16.05;4.03;;;6.30;99.90;;;;;;5066472;28;20122;-62
2022/12/27 10:09:38;;;;;;;10.00;3.22;;;6.40;99.90;;;;;;5065447;28;20040;-61
2022/12/27 10:12:24;;;;;;;8.50;3.10;;;6.30;99.90;;;;;;5053609;28;20040;-61
2022/12/27 10:15:17;;;;;;;8.60;3.10;;;6.40;99.90;;;;;;5062006;28;20071;-61
2022/12/27 10:18:23;;;;;;;8.15;3.47;;;6.40;99.90;;;;;;5056909;28;20037;-61
2022/12/27 10:20:58;;;;;;;9.85;3.05;;;6.40;99.90;;;;;;5057055;28;20025;-61
2022/12/27 10:23:29;;;;;;;13.85;3.22;;;6.40;99.90;;;;;;5063399;28;20174;-61
2022/12/27 10:26:05;;;;;;;9.70;3.00;;;6.50;99.90;;;;;;5062887;28;20032;-61
2022/12/27 10:28:44;;;;;;;11.45;3.25;;;6.60;99.90;;;;;;5062004;28;20040;-61
2022/12/27 10:31:20;;;;;;;10.80;3.45;;;6.60;99.90;;;;;;5060271;28;20514;-61
2022/12/27 10:33:47;;;;;;;12.07;3.42;;;6.70;99.90;;;;;;5056158;28;20044;-61
2022/12/27 10:36:16;;;;;;;9.35;2.83;;;6.70;99.90;;;;;;5050565;28;20032;-62
2022/12/27 10:38:41;;;;;;;8.75;2.95;;;6.60;99.90;;;;;;5050522;28;20136;-63
2022/12/27 10:41:37;;;;;;;10.10;3.65;;;6.80;99.90;;;;;;5055999;28;20292;-61
2022/12/27 10:44:09;;;;;;;13.57;4.00;;;6.80;99.90;;;;;;5058398;28;20097;-61
2022/12/27 10:46:35;;;;;;;13.68;4.43;;;6.90;99.90;;;;;;5063473;28;20075;-61
2022/12/27 10:49:07;;;;;;;24.42;10.15;;;6.90;99.90;;;;;;5053177;28;20044;-64
2022/12/27 10:51:38;;;;;;;16.02;5.18;;;6.90;99.90;;;;;;5058010;28;20032;-61
2022/12/27 10:54:34;;;;;;;19.73;5.32;;;7.00;99.90;;;;;;5059926;28;20037;-62
2022/12/27 10:57:30;;;;;;;13.88;4.82;;;6.90;99.90;;;;;;5065659;28;20094;-60
2022/12/27 11:00:17;;;;;;;13.73;4.57;;;7.00;99.90;;;;;;5060643;28;20068;-60
2022/12/27 11:02:57;;;;;;;13.85;4.68;;;7.00;99.90;;;;;;5060272;28;20546;-60
2022/12/27 11:05:28;;;;;;;10.88;3.80;;;7.10;99.90;;;;;;5051533;28;20043;-60
2022/12/27 11:07:55;;;;;;;13.85;3.60;;;7.00;99.90;;;;;;5068395;28;20038;-60
2022/12/27 11:10:27;;;;;;;14.48;4.40;;;7.00;99.90;;;;;;5058615;28;20492;-61
2022/12/27 11:13:06;;;;;;;14.02;4.10;;;7.20;99.90;;;;;;5055612;28;20472;-61
2022/12/27 11:15:40;;;;;;;16.35;3.85;;;7.20;99.90;;;;;;5057265;28;20408;-61
2022/12/27 11:18:15;;;;;;;15.05;3.60;;;7.20;99.90;;;;;;5060118;28;20079;-61
2022/12/27 11:20:50;;;;;;;17.88;4.20;;;7.20;99.90;;;;;;5065670;28;20164;-59
2022/12/27 11:23:19;;;;;;;10.68;3.20;;;7.30;99.90;;;;;;5057719;28;20508;-60
2022/12/27 11:26:00;;;;;;;10.70;3.67;;;7.30;99.90;;;;;;5064340;28;20572;-61
2022/12/27 11:28:46;;;;;;;17.77;3.55;;;7.40;99.90;;;;;;5065206;28;20070;-60
2022/12/27 11:31:14;;;;;;;13.05;4.10;;;7.40;99.90;;;;;;5059214;28;20040;-60
2022/12/27 11:33:46;;;;;;;11.40;3.63;;;7.50;99.90;;;;;;5059637;28;20493;-60
2022/12/27 11:36:14;;;;;;;13.18;3.67;;;7.50;99.90;;;;;;5065724;28;20495;-61
2022/12/27 11:38:43;;;;;;;10.63;3.00;;;7.50;99.90;;;;;;5062319;28;20039;-60
2022/12/27 11:41:15;;;;;;;7.93;2.92;;;7.50;99.90;;;;;;5066003;28;20039;-59
2022/12/27 11:44:14;;;;;;;9.82;2.75;;;7.50;99.90;;;;;;5071759;28;20095;-59
2022/12/27 11:46:55;;;;;;;8.23;2.92;;;7.50;99.90;;;;;;5065928;28;20484;-60
2022/12/27 11:49:47;;;;;;;10.98;2.75;;;7.60;99.90;;;;;;5056066;28;20044;-59
2022/12/27 11:52:42;;;;;;;8.93;2.72;;;7.70;99.90;;;;;;5058676;28;20442;-60
2022/12/27 11:55:36;;;;;;;11.82;2.92;;;7.70;99.90;;;;;;5059519;28;20037;-59
2022/12/27 11:58:10;;;;;;;;;;;7.60;99.90;;;;;;5057238;28;20040;-61
2022/12/27 12:00:52;;;;;;;8.55;2.60;;;7.60;99.90;;;;;;5058156;28;19958;-59
2022/12/27 12:03:41;;;;;;;9.73;3.08;;;7.60;99.90;;;;;;5059992;28;20047;-60
2022/12/27 12:06:28;;;;;;;14.27;3.05;;;7.50;99.90;;;;;;5054359;28;20055;-61
2022/12/27 12:09:28;;;;;;;14.20;2.95;;;7.60;99.90;;;;;;5063373;28;20032;-60
2022/12/27 12:12:29;;;;;;;10.82;3.13;;;7.60;99.90;;;;;;5069363;28;20399;-60
2022/12/27 12:15:22;;;;;;;15.07;5.97;;;7.70;99.90;;;;;;5037107;28;20426;-57
2022/12/27 12:17:54;;;;;;;8.77;3.30;;;7.80;99.90;;;;;;5057717;28;20425;-60
2022/12/27 12:20:31;;;;;;;10.50;3.40;;;7.80;99.90;;;;;;5061933;28;20119;-61
2022/12/27 12:23:11;;;;;;;9.73;3.42;;;7.80;99.90;;;;;;5063559;28;20036;-60
2022/12/27 12:25:51;;;;;;;13.10;4.07;;;7.80;99.90;;;;;;5058215;28;20032;-61
2022/12/27 12:28:55;;;;;;;12.45;3.53;;;7.90;99.90;;;;;;5058715;28;20965;-60
2022/12/27 12:31:52;;;;;;;10.05;3.63;;;7.90;99.90;;;;;;5058122;28;20047;-60
2022/12/27 12:34:55;;;;;;;11.57;3.33;;;7.80;99.90;;;;;;5060025;28;20132;-61
2022/12/27 12:37:49;;;;;;;9.93;3.20;;;7.90;99.90;;;;;;5056726;28;22111;-60
2022/12/27 12:40:31;;;;;;;10.70;2.88;;;7.90;99.90;;;;;;5059596;28;20036;-62
2022/12/27 12:43:34;;;;;;;10.95;2.90;;;7.80;99.90;;;;;;5067258;28;20028;-62
2022/12/27 12:46:21;;;;;;;8.68;3.08;;;7.80;99.90;;;;;;5059832;28;20043;-61
2022/12/27 12:49:07;;;;;;;9.80;3.78;;;7.90;99.90;;;;;;5061263;28;20032;-61
2022/12/27 12:52:23;;;;;;;7.88;3.38;;;7.90;99.90;;;;;;5065076;28;20120;-61
2022/12/27 12:55:16;;;;;;;10.07;3.00;;;7.90;99.90;;;;;;5001069;28;20125;-62
2022/12/27 12:57:55;;;;;;;7.30;2.80;;;7.90;99.90;;;;;;4997957;28;20073;-60
2022/12/27 13:00:24;;;;;;;10.63;3.58;;;7.80;99.90;;;;;;5040182;28;20039;-62
2022/12/27 13:03:03;;;;;;;10.40;3.70;;;7.70;99.90;;;;;;5062169;28;20078;-62
2022/12/27 13:05:43;;;;;;;12.70;3.38;;;7.80;99.90;;;;;;5057452;28;20036;-60
2022/12/27 13:08:28;;;;;;;11.02;3.80;;;7.70;99.90;;;;;;5063962;28;20455;-60
2022/12/27 13:11:05;;;;;;;8.52;2.88;;;7.60;99.90;;;;;;5057958;28;20032;-60
2022/12/27 13:13:46;;;;;;;9.73;2.78;;;7.60;99.90;;;;;;5070711;28;20031;-61
2022/12/27 13:16:25;;;;;;;6.32;2.30;;;7.60;99.90;;;;;;5060696;28;20455;-60
2022/12/27 13:19:29;;;;;;;11.38;2.80;;;7.70;99.90;;;;;;5060550;28;20462;-60
2022/12/27 13:22:26;;;;;;;7.82;3.10;;;7.70;99.90;;;;;;5075430;28;20483;-60
2022/12/27 13:25:19;;;;;;;10.68;4.00;;;7.70;99.90;;;;;;5051617;28;20025;-61
2022/12/27 13:28:24;;;;;;;8.80;2.55;;;7.60;99.90;;;;;;5054135;28;20596;-62
2022/12/27 13:31:18;;;;;;;12.13;3.35;;;7.60;99.90;;;;;;5061801;28;20041;-62
2022/12/27 13:33:55;;;;;;;9.27;2.95;;;7.70;99.90;;;;;;5068450;28;20026;-61
2022/12/27 13:37:02;;;;;;;10.02;3.15;;;7.80;99.90;;;;;;5056631;28;20028;-61
2022/12/27 13:40:03;;;;;;;8.07;3.40;;;7.90;99.90;;;;;;5058338;28;20369;-61
2022/12/27 13:43:06;;;;;;;11.05;2.92;;;7.80;99.90;;;;;;5055748;28;20032;-61
2022/12/27 13:45:56;;;;;;;12.05;3.15;;;7.80;99.90;;;;;;5059274;28;20656;-61
2022/12/27 13:48:52;;;;;;;12.77;3.05;;;7.80;99.90;;;;;;5058461;28;20036;-61
2022/12/27 13:51:42;;;;;;;7.72;3.10;;;7.80;99.90;;;;;;5057624;28;20044;-61
2022/12/27 13:54:20;;;;;;;11.35;3.10;;;7.80;99.90;;;;;;5038483;28;20036;-60
2022/12/27 13:56:51;;;;;;;9.85;3.22;;;7.60;99.90;;;;;;5062833;28;20037;-61
2022/12/27 13:59:42;;;;;;;10.57;2.97;;;7.60;99.90;;;;;;5053291;28;20475;-60
2022/12/27 14:02:26;;;;;;;9.57;2.53;;;7.60;99.90;;;;;;5054158;28;20499;-60
2022/12/27 14:05:38;;;;;;;11.10;3.45;;;7.70;99.90;;;;;;5058564;28;20066;-60
2022/12/27 14:08:31;;;;;;;10.60;3.28;;;7.70;99.90;;;;;;5061323;28;20098;-61
2022/12/27 14:10:57;;;;;;;13.77;3.50;;;7.80;99.90;;;;;;5054994;28;20029;-61
2022/12/27 14:13:25;;;;;;;8.50;3.10;;;7.60;99.90;;;;;;5057937;28;20279;-61
2022/12/27 14:16:21;;;;;;;12.05;3.15;;;7.60;99.90;;;;;;5055970;28;20029;-61
2022/12/27 14:19:08;;;;;;;12.55;3.35;;;7.50;99.90;;;;;;5059602;28;20043;-59
2022/12/27 14:22:07;;;;;;;8.95;2.85;;;7.60;99.90;;;;;;5057615;28;20563;-60
2022/12/27 14:25:05;;;;;;;12.18;3.47;;;7.60;99.90;;;;;;5062227;28;20503;-60
2022/12/27 14:28:09;;;;;;;9.95;3.25;;;7.40;99.90;;;;;;5058359;28;20017;-60
2022/12/27 14:30:53;;;;;;;9.50;3.15;;;7.40;99.90;;;;;;5061207;28;20044;-60
2022/12/27 14:33:48;;;;;;;13.20;3.38;;;7.30;99.90;;;;;;5047552;28;20086;-60
2022/12/27 14:36:43;;;;;;;14.75;3.22;;;7.30;99.90;;;;;;5057919;28;20036;-60
2022/12/27 14:39:29;;;;;;;6.90;2.88;;;7.30;99.90;;;;;;5072342;28;20364;-61
2022/12/27 14:42:27;;;;;;;12.43;3.35;;;7.30;99.90;;;;;;5072968;28;20368;-59
2022/12/27 14:45:30;;;;;;;12.65;3.60;;;7.30;99.90;;;;;;5062612;28;20025;-60
2022/12/27 14:48:23;;;;;;;12.85;5.25;;;7.30;99.90;;;;;;5064852;28;20028;-59
2022/12/27 14:51:16;;;;;;;;;;;7.30;99.90;;;;;;5067833;28;20048;-60
2022/12/27 14:53:59;;;;;;;10.85;3.25;;;7.20;99.90;;;;;;5065956;28;19916;-61
2022/12/27 14:56:52;;;;;;;11.20;3.33;;;7.10;99.90;;;;;;5064776;28;20036;-60
2022/12/27 14:59:23;;;;;;;10.98;2.92;;;7.00;99.90;;;;;;5060452;28;20051;-60
2022/12/27 15:02:19;;;;;;;10.88;3.00;;;7.00;99.90;;;;;;5068301;28;20380;-59
2022/12/27 15:05:10;;;;;;;10.18;3.47;;;7.00;99.90;;;;;;5066853;28;20032;-59
2022/12/27 15:07:54;;;;;;;11.52;3.67;;;7.00;99.90;;;;;;5062722;28;20029;-61